Time;durP1;ratioP1;P1;durP2;ratioP2;P2;SDS_P1;SDS_P2;PMS_P1;PMS_P2;Temp;Humidity;BMP_temperature;BMP_pressure;BME280_temperature;BME280_humidity;BME280_pressure;Samples;Min_cycle;Max_cycle;Signal;HPM_P1;HPM_P2
2022/03/15 00:00:26;;;;;;;61.00;30.23;;;;;;;4.63;54.02;102738.63;5052715;28;20103;-79
2022/03/15 00:02:54;;;;;;;64.00;27.05;;;;;;;4.59;54.17;102742.25;5035214;28;20059;-77
2022/03/15 00:05:20;;;;;;;54.80;26.42;;;;;;;4.62;54.26;102751.97;5035360;28;20120;-77
2022/03/15 00:07:47;;;;;;;56.25;26.70;;;;;;;4.51;54.29;102733.56;5053040;28;20060;-78
2022/03/15 00:10:14;;;;;;;47.25;25.42;;;;;;;4.55;53.94;102745.03;5053048;28;20070;-78
2022/03/15 00:12:40;;;;;;;49.60;26.58;;;;;;;4.46;53.95;102739.91;5052664;28;20062;-78
2022/03/15 00:15:08;;;;;;;53.13;27.60;;;;;;;4.45;54.22;102754.13;5052841;28;20028;-79
2022/03/15 00:17:37;;;;;;;53.17;25.33;;;;;;;4.40;54.10;102747.13;5034667;28;20032;-78
2022/03/15 00:20:05;;;;;;;46.25;24.73;;;;;;;4.47;54.42;102758.53;5052670;28;20029;-78
2022/03/15 00:22:35;;;;;;;51.00;24.95;;;;;;;4.39;54.11;102744.50;5052770;28;20033;-79
2022/03/15 00:25:06;;;;;;;47.80;25.05;;;;;;;4.30;53.97;102734.94;5052512;28;20025;-79
2022/03/15 00:27:32;;;;;;;51.50;21.80;;;;;;;4.22;54.39;102726.22;5052765;28;20032;-79
2022/03/15 00:29:58;;;;;;;51.75;22.77;;;;;;;4.38;53.99;102748.06;5052707;28;20021;-79
2022/03/15 00:32:25;;;;;;;50.28;22.63;;;;;;;4.33;54.14;102736.66;5034643;28;20032;-77
2022/03/15 00:34:51;;;;;;;44.60;23.50;;;;;;;4.38;53.94;102732.97;5034551;28;20032;-78
2022/03/15 00:37:17;;;;;;;44.25;21.60;;;;;;;4.44;54.20;102733.72;5052467;28;20056;-78
2022/03/15 00:39:43;;;;;;;39.97;21.23;;;;;;;4.49;54.07;102739.84;5052666;28;20056;-78
2022/03/15 00:42:09;;;;;;;42.80;21.70;;;;;;;4.42;53.78;102731.13;5034574;28;20075;-78
2022/03/15 00:44:35;;;;;;;47.90;22.42;;;;;;;4.30;54.07;102713.63;5052650;28;20060;-78
2022/03/15 00:47:01;;;;;;;43.42;22.42;;;;;;;4.38;54.25;102738.28;5052704;28;20024;-78
2022/03/15 00:49:27;;;;;;;43.13;23.15;;;;;;;4.36;54.06;102718.81;5052379;28;20029;-78
2022/03/15 00:51:52;;;;;;;44.33;22.20;;;;;;;4.37;54.30;102725.88;5034543;28;20025;-78
2022/03/15 00:54:18;;;;;;;48.00;22.08;;;;;;;4.42;54.23;102727.56;5034365;28;20063;-78
2022/03/15 00:56:44;;;;;;;46.53;22.65;;;;;;;4.40;54.07;102725.81;5052328;28;20025;-79
2022/03/15 00:59:09;;;;;;;47.63;23.00;;;;;;;4.39;54.06;102724.06;5052424;28;20032;-78
2022/03/15 01:01:36;;;;;;;47.90;24.58;;;;;;;4.38;54.37;102718.75;5052321;28;20416;-78
2022/03/15 01:04:03;;;;;;;48.63;23.60;;;;;;;4.43;54.31;102713.34;5036849;28;20033;-76
2022/03/15 01:06:28;;;;;;;47.75;23.33;;;;;;;4.34;54.34;102709.97;5052406;28;20082;-77
2022/03/15 01:08:54;;;;;;;52.10;23.67;;;;;;;4.27;54.60;102715.47;5052517;28;20582;-77
2022/03/15 01:11:23;;;;;;;50.42;24.08;;;;;;;4.23;54.71;102711.13;5034411;28;20017;-77
2022/03/15 01:13:49;;;;;;;43.95;23.23;;;;;;;4.12;54.97;102708.69;5051889;28;20035;-78
2022/03/15 01:16:14;;;;;;;43.97;24.65;;;;;;;4.12;54.65;102703.38;5052546;28;20036;-79
2022/03/15 01:18:41;;;;;;;45.83;24.05;;;;;;;3.95;55.49;102688.66;5052354;28;20020;-78
2022/03/15 01:21:07;;;;;;;41.28;23.00;;;;;;;4.01;55.36;102705.38;5038538;28;20032;-79
2022/03/15 01:23:33;;;;;;;47.30;23.20;;;;;;;4.06;55.33;102708.84;5018744;28;20092;-78
2022/03/15 01:25:59;;;;;;;42.05;20.33;;;;;;;4.02;55.23;102691.16;5034192;28;20033;-78
2022/03/15 01:28:24;;;;;;;38.58;21.08;;;;;;;4.07;55.55;102705.25;5036147;28;20077;-78
2022/03/15 01:30:50;;;;;;;39.63;20.40;;;;;;;4.04;55.39;102689.31;5056183;28;20017;-78
2022/03/15 01:33:17;;;;;;;42.17;22.10;;;;;;;4.09;55.27;102682.13;5056047;28;20025;-78
2022/03/15 01:35:43;;;;;;;42.83;20.35;;;;;;;4.21;55.18;102697.84;5038234;28;20032;-78
2022/03/15 01:38:09;;;;;;;42.63;22.58;;;;;;;4.14;55.17;102668.72;5037850;28;20029;-80
2022/03/15 01:40:35;;;;;;;45.15;21.15;;;;;;;4.17;54.62;102672.19;5037955;28;20033;-79
2022/03/15 01:43:00;;;;;;;38.78;21.45;;;;;;;4.23;54.72;102682.69;5055735;28;20033;-77
2022/03/15 01:45:34;;;;;;;41.50;19.90;;;;;;;4.29;54.68;102685.22;5037826;28;20064;-78
2022/03/15 01:48:00;;;;;;;42.55;21.85;;;;;;;4.28;54.71;102677.28;5055207;28;20498;-78
2022/03/15 01:50:27;;;;;;;35.83;19.90;;;;;;;4.35;54.65;102685.09;5037745;28;20033;-77
2022/03/15 01:52:52;;;;;;;47.25;20.50;;;;;;;4.38;54.80;102679.69;5055391;28;20521;-77
2022/03/15 01:55:18;;;;;;;39.10;19.52;;;;;;;4.31;54.79;102667.41;5037404;28;20025;-79
2022/03/15 01:57:44;;;;;;;43.65;21.80;;;;;;;4.42;54.28;102685.81;5055209;28;20082;-78
2022/03/15 02:00:10;;;;;;;41.47;20.95;;;;;;;4.44;54.64;102683.09;5054677;28;20048;-77
2022/03/15 02:02:36;;;;;;;37.85;20.20;;;;;;;4.47;54.37;102689.25;5055192;28;20033;-79
2022/03/15 02:05:01;;;;;;;34.42;20.23;;;;;;;4.47;54.17;102677.72;5037222;28;20047;-77
2022/03/15 02:07:27;;;;;;;38.22;21.02;;;;;;;4.45;54.41;102674.22;5055109;28;20094;-77
2022/03/15 02:09:53;;;;;;;37.15;20.58;;;;;;;4.42;54.21;102667.16;5055650;28;20020;-79
2022/03/15 02:12:21;;;;;;;37.47;20.55;;;;;;;4.48;54.30;102684.81;5055600;28;20033;-80
2022/03/15 02:14:46;;;;;;;47.55;21.58;;;;;;;4.44;54.17;102668.00;5055353;28;20032;-78
2022/03/15 02:17:12;;;;;;;42.78;21.55;;;;;;;4.49;54.01;102674.13;5054990;28;20478;-78
2022/03/15 02:19:37;;;;;;;41.60;21.83;;;;;;;4.51;54.14;102663.41;5055136;28;20057;-78
2022/03/15 02:22:03;;;;;;;49.90;22.90;;;;;;;4.48;54.11;102658.16;5056170;28;20036;-77
2022/03/15 02:24:29;;;;;;;37.92;22.77;;;;;;;4.52;54.02;102659.84;5055434;28;20416;-77
2022/03/15 02:26:54;;;;;;;37.92;22.48;;;;;;;4.56;53.89;102661.50;5054854;28;20025;-78
2022/03/15 02:29:21;;;;;;;41.92;23.08;;;;;;;4.57;54.07;102663.25;5054286;28;20394;-77
2022/03/15 02:31:47;;;;;;;42.55;23.45;;;;;;;4.54;53.76;102652.69;5054829;28;20051;-77
2022/03/15 02:34:13;;;;;;;40.90;22.15;;;;;;;4.60;54.12;102652.53;5054810;28;20037;-77
2022/03/15 02:36:39;;;;;;;40.22;21.58;;;;;;;4.59;53.70;102651.66;5055194;28;20032;-78
2022/03/15 02:39:05;;;;;;;31.77;19.45;;;;;;;4.65;53.76;102656.81;5054442;28;20025;-77
2022/03/15 02:41:30;;;;;;;33.63;20.88;;;;;;;4.60;53.71;102660.53;5055046;28;20170;-77
2022/03/15 02:43:56;;;;;;;38.58;21.50;;;;;;;4.48;53.65;102650.16;5055464;28;20518;-79
2022/03/15 02:46:27;;;;;;;35.35;21.45;;;;;;;4.52;53.58;102659.84;5054649;28;20071;-77
2022/03/15 02:48:53;;;;;;;38.60;20.60;;;;;;;4.50;53.87;102651.88;5054887;28;20040;-79
2022/03/15 02:51:18;;;;;;;33.72;19.42;;;;;;;4.57;53.61;102658.81;5054393;28;20025;-78
2022/03/15 02:53:44;;;;;;;39.55;19.85;;;;;;;4.50;53.98;102667.84;5036741;28;20031;-77
2022/03/15 02:56:11;;;;;;;36.90;20.00;;;;;;;4.54;53.53;102663.34;5060158;28;20418;-78
2022/03/15 02:58:39;;;;;;;41.70;20.90;;;;;;;4.54;53.62;102663.34;5054138;28;20107;-77
2022/03/15 03:01:06;;;;;;;46.60;23.77;;;;;;;4.52;53.90;102667.84;5054823;28;20072;-77
2022/03/15 03:03:32;;;;;;;49.05;23.92;;;;;;;4.53;53.48;102666.91;5054224;28;20052;-77
2022/03/15 03:05:58;;;;;;;52.72;21.40;;;;;;;4.53;53.81;102656.25;5053960;28;20056;-79
2022/03/15 03:08:26;;;;;;;43.15;20.27;;;;;;;4.56;53.54;102665.03;5054399;28;20036;-77
2022/03/15 03:10:55;;;;;;;39.20;19.98;;;;;;;4.40;53.13;102667.19;5054526;28;20017;-78
2022/03/15 03:13:27;;;;;;;41.05;20.30;;;;;;;4.06;53.66;102684.88;5054388;28;20033;-77
2022/03/15 03:15:57;;;;;;;;;;;;;;;3.82;54.89;102683.56;5054259;28;20021;-77
2022/03/15 03:18:33;;;;;;;44.25;20.33;;;;;;;3.80;55.22;102680.09;5053610;28;19919;-77
2022/03/15 03:21:01;;;;;;;38.08;19.77;;;;;;;3.87;55.35;102682.63;5053180;28;20033;-77
2022/03/15 03:23:27;;;;;;;37.65;19.98;;;;;;;3.96;55.02;102679.75;5053353;28;20025;-77
2022/03/15 03:25:54;;;;;;;35.42;20.42;;;;;;;4.00;54.91;102670.81;5053665;28;20033;-78
2022/03/15 03:28:20;;;;;;;32.63;18.98;;;;;;;4.05;55.04;102680.44;5035509;28;20425;-79
2022/03/15 03:30:47;;;;;;;34.03;19.75;;;;;;;4.05;54.68;102663.59;5053229;28;20531;-79
2022/03/15 03:33:17;;;;;;;41.47;20.85;;;;;;;4.13;54.89;102665.16;5053070;28;20029;-78
2022/03/15 03:35:43;;;;;;;54.67;21.13;;;;;;;4.23;54.78;102664.06;5053520;28;20025;-78
2022/03/15 03:38:10;;;;;;;48.55;19.75;;;;;;;4.27;54.31;102667.53;5053490;28;20473;-78
2022/03/15 03:40:35;;;;;;;41.30;20.30;;;;;;;4.29;54.43;102663.91;5052915;28;20040;-78
2022/03/15 03:43:01;;;;;;;36.28;20.50;;;;;;;4.22;54.07;102662.28;5053504;28;20441;-78
2022/03/15 03:45:27;;;;;;;57.22;28.65;;;;;;;4.03;54.20;102660.97;5052847;28;20028;-77
2022/03/15 03:47:53;;;;;;;45.65;23.88;;;;;;;3.96;54.88;102670.00;5053437;28;20032;-77
2022/03/15 03:50:19;;;;;;;38.38;20.27;;;;;;;4.01;54.88;102667.22;5052549;28;20044;-77
2022/03/15 03:52:44;;;;;;;43.00;22.50;;;;;;;4.01;54.65;102662.78;5053168;28;20029;-77
2022/03/15 03:55:11;;;;;;;45.67;23.75;;;;;;;3.89;55.00;102675.47;5053672;28;20490;-77
2022/03/15 03:57:37;;;;;;;56.20;25.23;;;;;;;3.39;55.97;102676.50;5054537;28;20032;-80
2022/03/15 04:00:05;;;;;;;72.85;28.95;;;;;;;2.95;57.13;102671.97;5052874;28;20045;-78
2022/03/15 04:02:31;;;;;;;50.45;26.88;;;;;;;2.90;57.63;102682.69;5013394;28;20096;-78
2022/03/15 04:04:57;;;;;;;50.95;26.23;;;;;;;2.75;57.98;102690.94;5013179;28;20026;-78
2022/03/15 04:07:22;;;;;;;61.78;29.98;;;;;;;2.55;58.53;102679.72;5032276;28;20463;-78
2022/03/15 04:09:48;;;;;;;67.80;27.02;;;;;;;2.66;58.99;102688.41;5032793;28;20033;-77
2022/03/15 04:12:14;;;;;;;45.47;24.17;;;;;;;2.75;58.56;102675.00;5032173;28;20029;-77
2022/03/15 04:14:40;;;;;;;56.67;27.13;;;;;;;2.92;58.48;102685.31;5033150;28;20029;-80
2022/03/15 04:17:07;;;;;;;49.08;26.25;;;;;;;3.04;58.33;102690.41;5033176;28;20028;-77
2022/03/15 04:19:33;;;;;;;51.67;26.23;;;;;;;3.10;58.05;102690.31;5035011;28;20451;-79
2022/03/15 04:21:59;;;;;;;46.08;24.92;;;;;;;3.09;57.56;102670.81;5016049;28;20033;-79
2022/03/15 04:24:25;;;;;;;64.65;30.10;;;;;;;3.26;57.30;102692.69;5032355;28;20554;-80
2022/03/15 04:26:51;;;;;;;56.78;28.35;;;;;;;3.42;57.45;102692.41;5033110;28;20033;-80
2022/03/15 04:29:17;;;;;;;64.40;28.35;;;;;;;3.43;57.16;102683.50;5034164;28;20498;-80
2022/03/15 04:31:43;;;;;;;47.75;24.60;;;;;;;3.55;56.88;102688.56;5030408;28;20371;-79
2022/03/15 04:34:08;;;;;;;55.75;23.85;;;;;;;3.69;56.52;102686.53;5032715;28;20040;-79
2022/03/15 04:36:39;;;;;;;44.72;21.67;;;;;;;3.77;56.21;102684.59;5015150;28;20538;-78
2022/03/15 04:39:04;;;;;;;45.10;23.52;;;;;;;3.82;56.07;102688.91;5033032;28;20037;-81
2022/03/15 04:41:30;;;;;;;56.00;26.77;;;;;;;3.90;56.05;102686.09;5031675;28;20029;-79
2022/03/15 04:43:58;;;;;;;49.08;26.75;;;;;;;3.99;55.49;102690.34;5014051;28;20036;-80
2022/03/15 04:46:24;;;;;;;44.25;24.63;;;;;;;4.06;55.17;102690.19;5032258;28;20033;-79
2022/03/15 04:48:49;;;;;;;60.20;27.13;;;;;;;4.13;55.04;102689.13;5032152;28;20035;-79
2022/03/15 04:51:17;;;;;;;52.00;25.85;;;;;;;4.20;55.17;102685.44;5031733;28;20017;-80
2022/03/15 04:53:42;;;;;;;43.90;24.02;;;;;;;4.12;54.71;102687.41;5032506;28;20021;-77
2022/03/15 04:56:08;;;;;;;50.42;22.70;;;;;;;4.10;55.10;102688.31;5032558;28;20112;-79
2022/03/15 04:58:33;;;;;;;50.22;23.85;;;;;;;4.19;54.80;102694.31;5031718;28;20033;-78
2022/03/15 05:00:59;;;;;;;58.08;24.45;;;;;;;4.19;54.84;102683.66;5031485;28;20050;-78
2022/03/15 05:03:24;;;;;;;51.10;23.85;;;;;;;4.22;54.71;102683.59;5038159;28;20033;-80
2022/03/15 05:05:50;;;;;;;49.65;22.92;;;;;;;4.17;54.41;102677.50;5038297;28;20407;-77
2022/03/15 05:08:16;;;;;;;54.65;22.23;;;;;;;4.11;54.70;102674.97;5020695;28;20040;-77
2022/03/15 05:13:26;;;;;;;55.97;25.20;;;;;;;4.11;54.84;102680.31;5038459;28;20040;-79
2022/03/15 05:15:52;;;;;;;51.35;25.13;;;;;;;4.15;54.42;102675.78;5038724;28;20478;-78
2022/03/15 05:18:18;;;;;;;50.28;23.75;;;;;;;4.24;54.91;102679.13;5019933;28;20044;-79
2022/03/15 05:20:43;;;;;;;50.05;24.23;;;;;;;4.36;54.69;102664.66;5020980;28;20455;-78
2022/03/15 05:23:09;;;;;;;54.90;24.15;;;;;;;4.43;53.94;102655.63;5038022;28;20033;-77
2022/03/15 05:25:37;;;;;;;53.58;26.80;;;;;;;4.53;53.95;102664.25;5038398;28;20034;-81
2022/03/15 05:28:07;;;;;;;55.72;28.95;;;;;;;4.59;53.93;102666.75;5039750;28;20052;-85
2022/03/15 05:30:32;;;;;;;65.75;28.55;;;;;;;4.67;53.74;102667.47;5040590;28;20021;-83
2022/03/15 05:33:01;;;;;;;67.30;29.58;;;;;;;4.67;53.43;102659.47;5042277;28;20051;-83
2022/03/15 05:35:26;;;;;;;66.95;36.90;;;;;;;4.60;53.68;102655.19;5040904;28;20037;-80
2022/03/15 05:37:52;;;;;;;68.10;32.80;;;;;;;4.79;53.93;102669.84;5040951;28;20026;-83
2022/03/15 05:40:18;;;;;;;63.03;30.83;;;;;;;4.78;53.64;102654.75;5023394;28;20048;-84
2022/03/15 05:42:43;;;;;;;58.85;29.67;;;;;;;4.79;53.49;102643.16;5023161;28;20025;-84
2022/03/15 05:45:09;;;;;;;77.35;28.98;;;;;;;4.88;53.39;102632.28;5041292;28;20079;-86
2022/03/15 05:47:35;;;;;;;58.25;28.52;;;;;;;5.00;52.98;102637.28;5040139;28;20040;-82
2022/03/15 05:50:01;;;;;;;54.13;28.75;;;;;;;5.07;52.69;102628.22;5039853;28;20035;-83
2022/03/15 05:52:26;;;;;;;70.90;28.52;;;;;;;5.22;52.80;102641.13;5040099;28;20541;-82
2022/03/15 05:54:52;;;;;;;75.28;27.75;;;;;;;5.36;52.19;102649.63;5021987;28;20415;-82
2022/03/15 05:57:17;;;;;;;68.70;33.10;;;;;;;5.38;51.93;102633.59;5045796;28;20056;-81
2022/03/15 05:59:43;;;;;;;77.90;31.95;;;;;;;5.33;51.93;102601.69;5050923;28;20028;-82
2022/03/15 06:02:08;;;;;;;58.50;29.23;;;;;;;5.43;51.72;102600.50;5066444;28;20039;-81
2022/03/15 06:04:35;;;;;;;69.22;32.33;;;;;;;5.40;51.67;102589.94;5067118;28;20037;-82
2022/03/15 06:07:01;;;;;;;67.50;32.70;;;;;;;5.76;51.38;102635.13;5065680;28;20024;-83
2022/03/15 06:09:27;;;;;;;66.93;30.50;;;;;;;5.69;51.22;102607.75;5071569;28;20029;-84
2022/03/15 06:11:54;;;;;;;58.10;27.50;;;;;;;5.75;51.10;102622.72;5059309;28;20028;-81
2022/03/15 06:14:20;;;;;;;59.13;26.98;;;;;;;5.74;51.02;102594.28;5055766;28;20490;-82
2022/03/15 06:16:46;;;;;;;48.50;23.77;;;;;;;5.96;51.16;102638.16;5058137;28;20482;-82
2022/03/15 06:19:12;;;;;;;97.07;26.20;;;;;;;5.99;50.59;102635.38;5056437;28;20032;-82
2022/03/15 06:21:39;;;;;;;50.15;24.50;;;;;;;5.96;50.33;102612.28;5056771;28;20110;-82
2022/03/15 06:24:09;;;;;;;51.72;24.05;;;;;;;5.87;49.59;102620.56;5057033;28;20023;-83
2022/03/15 06:26:36;;;;;;;48.35;24.38;;;;;;;5.87;50.03;102627.75;5057161;28;20438;-82
2022/03/15 06:29:03;;;;;;;47.30;22.65;;;;;;;5.92;49.79;102613.31;5056865;28;20028;-82
2022/03/15 06:31:33;;;;;;;59.97;27.17;;;;;;;5.99;50.11;102598.00;5056965;28;20079;-82
2022/03/15 06:34:02;;;;;;;73.65;30.17;;;;;;;6.07;49.61;102619.97;5055813;28;20533;-83
2022/03/15 06:36:28;;;;;;;65.78;29.40;;;;;;;6.30;49.85;102638.81;5056819;28;20082;-82
2022/03/15 06:38:54;;;;;;;71.63;29.95;;;;;;;6.32;49.29;102626.31;5056142;28;20058;-82
2022/03/15 06:41:20;;;;;;;69.20;30.55;;;;;;;6.15;49.50;102585.00;5056791;28;20112;-83
2022/03/15 06:43:45;;;;;;;65.70;28.67;;;;;;;6.30;49.77;102596.06;5057403;28;20025;-81
2022/03/15 06:46:11;;;;;;;65.63;31.45;;;;;;;6.58;48.97;102626.31;5074614;28;20047;-83
2022/03/15 06:48:37;;;;;;;90.78;34.05;;;;;;;6.44;49.13;102591.16;5075164;28;20028;-82
2022/03/15 06:51:04;;;;;;;87.50;31.95;;;;;;;6.72;48.52;102614.31;5074619;28;20032;-82
2022/03/15 06:53:30;;;;;;;69.20;29.45;;;;;;;6.94;48.58;102628.72;5056375;28;20026;-81
2022/03/15 06:55:56;;;;;;;69.15;29.23;;;;;;;6.83;48.15;102610.34;5074763;28;20464;-82
2022/03/15 06:58:22;;;;;;;75.43;29.20;;;;;;;7.00;47.56;102625.81;5074603;28;20016;-83
2022/03/15 07:00:47;;;;;;;67.82;28.83;;;;;;;6.86;47.81;102598.66;5074458;28;20075;-82
2022/03/15 07:03:14;;;;;;;61.17;27.88;;;;;;;7.12;47.37;102620.88;5074887;28;20114;-82
2022/03/15 07:05:40;;;;;;;69.05;27.85;;;;;;;7.19;46.86;102626.91;5074493;28;20054;-82
2022/03/15 07:08:06;;;;;;;53.40;25.88;;;;;;;7.22;46.89;102620.56;5074566;28;20028;-82
2022/03/15 07:10:33;;;;;;;56.50;26.70;;;;;;;7.20;46.13;102615.28;5075173;28;20103;-82
2022/03/15 07:12:59;;;;;;;49.15;25.52;;;;;;;7.25;46.11;102605.28;5075545;28;20031;-82
2022/03/15 07:15:25;;;;;;;56.53;22.15;;;;;;;7.35;45.93;102612.06;5075075;28;20024;-82
2022/03/15 07:17:53;;;;;;;47.10;21.10;;;;;;;7.52;46.02;102620.31;5075228;28;20028;-82
2022/03/15 07:20:19;;;;;;;31.73;18.27;;;;;;;7.53;45.79;102606.00;5075161;28;20048;-81
2022/03/15 07:22:45;;;;;;;43.03;19.13;;;;;;;7.72;45.17;102632.09;5075073;28;20107;-82
2022/03/15 07:25:11;;;;;;;43.05;21.92;;;;;;;7.66;45.30;102628.75;5073598;28;20103;-82
2022/03/15 07:27:37;;;;;;;50.67;23.08;;;;;;;7.69;44.66;102627.75;5074765;28;20028;-82
2022/03/15 07:30:03;;;;;;;52.03;20.27;;;;;;;7.51;44.82;102601.66;5075980;28;20024;-83
2022/03/15 07:32:29;;;;;;;35.22;18.13;;;;;;;7.50;44.70;102589.19;5057032;28;20170;-83
2022/03/15 07:34:55;;;;;;;43.10;18.73;;;;;;;7.65;44.66;102618.94;5076031;28;20482;-83
2022/03/15 07:37:20;;;;;;;34.70;20.40;;;;;;;7.64;44.35;102598.44;5075658;28;20088;-82
2022/03/15 07:39:46;;;;;;;40.72;20.45;;;;;;;7.68;44.53;102593.84;5083664;28;20038;-82
2022/03/15 07:42:12;;;;;;;55.50;21.67;;;;;;;7.88;44.53;102618.09;5076284;28;20036;-82
2022/03/15 07:44:40;;;;;;;48.22;18.83;;;;;;;7.79;44.02;102612.19;5065593;28;20039;-82
2022/03/15 07:47:06;;;;;;;48.85;21.20;;;;;;;7.70;44.48;102586.66;5063598;28;20058;-82
2022/03/15 07:49:32;;;;;;;62.13;23.38;;;;;;;7.92;44.69;102610.81;5074147;28;20024;-81
2022/03/15 07:51:58;;;;;;;43.42;20.80;;;;;;;8.02;44.94;102610.38;5055825;28;20031;-83
2022/03/15 07:54:23;;;;;;;43.42;22.63;;;;;;;8.02;44.83;102604.13;5073989;28;20024;-81
2022/03/15 07:56:50;;;;;;;56.90;23.73;;;;;;;8.12;45.03;102611.75;5074935;28;20033;-82
2022/03/15 07:59:15;;;;;;;57.38;25.77;;;;;;;8.14;46.22;102620.59;5057076;28;20029;-82
2022/03/15 08:01:41;;;;;;;59.78;28.55;;;;;;;7.95;46.33;102589.25;5076096;28;20060;-81
2022/03/15 08:04:07;;;;;;;60.38;26.52;;;;;;;8.04;46.70;102607.66;5076256;28;20090;-82
2022/03/15 08:06:35;;;;;;;55.33;28.75;;;;;;;8.21;47.06;102623.91;5077964;28;20390;-82
2022/03/15 08:09:02;;;;;;;68.00;28.90;;;;;;;8.17;47.36;102588.31;5078430;28;20078;-82
2022/03/15 08:11:27;;;;;;;54.10;28.75;;;;;;;8.18;46.49;102592.75;5056603;28;20024;-82
2022/03/15 08:13:54;;;;;;;51.70;27.05;;;;;;;8.32;46.88;102613.66;5078313;28;20032;-81
2022/03/15 08:16:23;;;;;;;49.58;24.83;;;;;;;8.53;45.92;102618.16;5065041;28;20054;-82
2022/03/15 08:18:50;;;;;;;58.08;25.85;;;;;;;8.63;45.88;102606.13;5065276;28;20032;-83
2022/03/15 08:21:16;;;;;;;57.28;26.80;;;;;;;8.64;45.57;102594.47;5063050;28;20036;-83
2022/03/15 08:23:43;;;;;;;54.83;23.95;;;;;;;8.57;45.22;102570.63;5060419;28;20490;-81
2022/03/15 08:26:09;;;;;;;55.55;22.85;;;;;;;8.60;44.61;102560.66;5060490;28;20033;-81
2022/03/15 08:28:35;;;;;;;39.28;21.08;;;;;;;8.74;43.81;102579.69;5075695;28;20032;-82
2022/03/15 08:31:01;;;;;;;45.67;23.00;;;;;;;8.78;43.41;102591.19;5056498;28;20111;-81
2022/03/15 08:33:27;;;;;;;43.92;21.83;;;;;;;8.94;43.79;102592.28;5058214;28;20497;-84
2022/03/15 08:35:53;;;;;;;42.50;21.95;;;;;;;8.99;43.35;102592.09;5077142;28;20064;-82
2022/03/15 08:38:20;;;;;;;37.13;19.77;;;;;;;9.16;43.88;102597.56;5058267;28;20052;-84
2022/03/15 08:40:46;;;;;;;60.38;21.95;;;;;;;9.15;43.54;102583.28;5058296;28;20502;-83
2022/03/15 08:43:12;;;;;;;45.92;19.95;;;;;;;9.45;43.17;102590.91;5076557;28;20028;-82
2022/03/15 08:45:39;;;;;;;50.55;21.80;;;;;;;9.50;42.39;102573.63;5076362;28;20040;-82
2022/03/15 08:48:06;;;;;;;52.60;20.63;;;;;;;9.78;42.23;102582.13;5058373;28;20047;-82
2022/03/15 08:50:31;;;;;;;50.95;21.85;;;;;;;9.71;42.20;102548.47;5076853;28;20099;-82
2022/03/15 08:52:57;;;;;;;41.63;21.08;;;;;;;9.99;42.14;102563.25;5059138;28;20040;-83
2022/03/15 08:55:23;;;;;;;62.90;23.58;;;;;;;10.12;42.00;102572.50;5077280;28;20064;-83
2022/03/15 08:57:50;;;;;;;58.47;22.98;;;;;;;10.24;41.85;102567.41;5076419;28;20103;-84
2022/03/15 09:00:16;;;;;;;64.78;24.98;;;;;;;10.41;41.92;102574.63;5077008;28;20532;-82
2022/03/15 09:02:42;;;;;;;87.65;25.88;;;;;;;10.41;41.71;102550.44;5077472;28;20032;-83
2022/03/15 09:05:07;;;;;;;62.10;24.25;;;;;;;10.50;41.47;102549.97;5059288;28;20020;-82
2022/03/15 09:07:36;;;;;;;50.70;22.95;;;;;;;10.52;41.73;102557.97;5058795;28;20028;-82
2022/03/15 09:10:02;;;;;;;67.53;24.83;;;;;;;10.61;41.67;102563.75;5077112;28;20060;-82
2022/03/15 09:12:28;;;;;;;46.75;23.55;;;;;;;10.63;41.43;102551.09;5077528;28;20398;-81
2022/03/15 09:14:54;;;;;;;55.45;23.90;;;;;;;10.71;41.23;102554.25;5061737;28;20029;-82
2022/03/15 09:17:19;;;;;;;63.00;23.35;;;;;;;10.69;41.36;102534.63;5082479;28;20054;-82
2022/03/15 09:19:45;;;;;;;45.78;22.77;;;;;;;10.80;40.60;102531.38;5078455;28;20029;-82
2022/03/15 09:22:11;;;;;;;35.03;21.23;;;;;;;10.83;41.15;102548.25;5085543;28;20052;-81
2022/03/15 09:24:37;;;;;;;67.63;26.30;;;;;;;10.93;40.85;102537.88;5059148;28;20063;-82
2022/03/15 09:27:04;;;;;;;48.78;21.85;;;;;;;10.91;41.04;102529.88;5077653;28;20474;-83
2022/03/15 09:29:30;;;;;;;40.28;20.52;;;;;;;11.03;40.66;102517.59;5059558;28;20040;-83
2022/03/15 09:31:56;;;;;;;38.47;19.42;;;;;;;11.18;40.62;102527.53;5077438;28;20028;-83
2022/03/15 09:34:22;;;;;;;40.40;19.80;;;;;;;11.10;40.37;102492.06;5059181;28;20383;-82
2022/03/15 09:36:49;;;;;;;43.30;23.65;;;;;;;11.10;40.56;102480.44;5077516;28;20084;-82
2022/03/15 09:39:16;;;;;;;41.55;21.90;;;;;;;11.31;40.37;102496.28;5058704;28;20032;-83
2022/03/15 09:41:43;;;;;;;44.53;20.52;;;;;;;11.44;39.67;102496.47;5042200;28;20414;-83
2022/03/15 09:44:10;;;;;;;44.67;21.65;;;;;;;11.54;39.81;102497.72;5060567;28;20037;-82
2022/03/15 09:46:50;;;;;;;42.30;20.67;;;;;;;11.72;39.92;102490.44;5060404;28;20119;-83
2022/03/15 09:49:18;;;;;;;34.83;19.85;;;;;;;11.95;39.28;102490.91;5079720;28;20025;-82
2022/03/15 09:51:47;;;;;;;38.45;20.52;;;;;;;12.09;39.06;102483.81;5064161;28;20067;-83
2022/03/15 09:54:14;;;;;;;32.20;19.65;;;;;;;12.07;38.71;102440.75;5082710;28;20043;-82
2022/03/15 09:56:41;;;;;;;48.47;19.83;;;;;;;12.17;38.58;102435.69;5081693;28;20031;-82
2022/03/15 09:59:21;;;;;;;42.25;19.33;;;;;;;12.46;37.77;102468.06;5080667;28;20035;-84
2022/03/15 10:01:50;;;;;;;44.10;22.17;;;;;;;12.60;37.96;102479.88;5079235;28;20048;-82
2022/03/15 10:04:22;;;;;;;56.95;22.17;;;;;;;12.56;37.86;102460.28;5081836;28;20016;-83
2022/03/15 10:06:51;;;;;;;37.45;19.85;;;;;;;12.76;37.90;102470.72;5086731;28;20023;-82
2022/03/15 10:09:17;;;;;;;32.72;20.05;;;;;;;12.92;37.31;102465.25;5068953;28;20506;-81
2022/03/15 10:11:42;;;;;;;31.02;18.52;;;;;;;13.00;36.64;102463.81;5062646;28;20050;-82
2022/03/15 10:14:09;;;;;;;38.97;19.75;;;;;;;13.04;36.47;102454.56;5081083;28;20020;-82
2022/03/15 10:16:43;;;;;;;40.13;20.50;;;;;;;13.34;35.81;102465.28;5062043;28;20024;-83
2022/03/15 10:19:14;;;;;;;53.30;19.77;;;;;;;13.42;35.52;102470.22;5078240;28;20020;-83
2022/03/15 10:21:45;;;;;;;35.75;21.05;;;;;;;13.52;35.87;102452.41;5062252;28;20043;-82
2022/03/15 10:24:18;;;;;;;48.97;21.80;;;;;;;13.56;35.86;102425.09;5081242;28;20025;-85
2022/03/15 10:26:44;;;;;;;;;;;;;;;13.93;33.53;102438.91;5063800;28;20324;-81
2022/03/15 10:29:13;;;;;;;44.35;16.27;;;;;;;13.74;32.84;102411.34;5082673;28;19908;-82
2022/03/15 10:31:40;;;;;;;29.85;15.23;;;;;;;13.86;32.57;102411.38;5081764;28;20046;-81
2022/03/15 10:34:07;;;;;;;26.30;14.23;;;;;;;14.09;32.02;102424.25;5064710;28;20036;-82
2022/03/15 10:36:40;;;;;;;32.92;15.00;;;;;;;14.21;31.43;102433.38;5081489;28;20522;-82
2022/03/15 10:39:08;;;;;;;28.90;15.02;;;;;;;14.22;30.78;102415.31;5082889;28;20089;-83
2022/03/15 10:41:49;;;;;;;23.83;14.35;;;;;;;14.54;30.28;102431.09;5082156;28;20040;-83
2022/03/15 10:44:29;;;;;;;25.92;14.35;;;;;;;14.52;30.03;102415.94;5082571;28;20025;-80
2022/03/15 10:47:08;;;;;;;28.30;15.00;;;;;;;14.62;29.72;102417.00;5063528;28;20101;-82
2022/03/15 10:49:51;;;;;;;26.02;14.60;;;;;;;14.55;30.40;102400.34;5081946;28;20036;-83
2022/03/15 10:52:36;;;;;;;28.80;14.90;;;;;;;14.84;30.31;102419.94;5081984;28;20027;-83
2022/03/15 10:55:23;;;;;;;24.05;13.70;;;;;;;15.01;29.58;102414.22;5081000;28;20013;-82
2022/03/15 10:57:50;;;;;;;25.13;13.93;;;;;;;15.23;29.21;102408.94;5087980;28;20115;-83
2022/03/15 11:00:18;;;;;;;29.00;15.35;;;;;;;15.31;29.20;102393.97;5081469;28;20050;-84
2022/03/15 11:02:47;;;;;;;24.98;13.73;;;;;;;15.48;29.04;102391.78;5082570;28;20028;-83
2022/03/15 11:05:23;;;;;;;28.70;13.93;;;;;;;15.49;29.13;102368.25;5082383;28;20016;-82
2022/03/15 11:07:50;;;;;;;24.35;14.63;;;;;;;15.76;28.36;102388.75;5084324;28;20021;-82
2022/03/15 11:10:16;;;;;;;28.23;14.52;;;;;;;15.73;27.75;102377.25;5064787;28;20050;-83
2022/03/15 11:12:58;;;;;;;42.05;18.23;;;;;;;15.59;27.88;102382.88;5080592;28;20020;-82
2022/03/15 11:15:30;;;;;;;27.77;12.93;;;;;;;15.59;27.93;102389.16;5079968;28;20501;-85
2022/03/15 11:18:03;;;;;;;29.30;12.97;;;;;;;15.46;28.04;102392.84;5081808;28;20036;-81